sensor_id;sensor_type;location;lat;lon;timestamp;P1;durP1;ratioP1;P2;durP2;ratioP2
50495;SDS011;38806;51.554;5.704;2023-03-08T00:01:22;25.63;;;15.73;;
50495;SDS011;38806;51.554;5.704;2023-03-08T00:03:23;26.65;;;15.30;;
50495;SDS011;38806;51.554;5.704;2023-03-08T00:05:23;20.35;;;12.80;;
50495;SDS011;38806;51.554;5.704;2023-03-08T00:07:23;23.23;;;14.90;;
50495;SDS011;38806;51.554;5.704;2023-03-08T00:09:23;27.05;;;15.65;;
50495;SDS011;38806;51.554;5.704;2023-03-08T00:11:24;24.25;;;15.43;;
50495;SDS011;38806;51.554;5.704;2023-03-08T00:13:24;21.25;;;14.18;;
50495;SDS011;38806;51.554;5.704;2023-03-08T00:15:24;30.08;;;15.98;;
50495;SDS011;38806;51.554;5.704;2023-03-08T00:17:24;25.90;;;14.90;;
50495;SDS011;38806;51.554;5.704;2023-03-08T00:19:25;29.05;;;16.15;;
50495;SDS011;38806;51.554;5.704;2023-03-08T00:21:25;28.38;;;17.05;;
50495;SDS011;38806;51.554;5.704;2023-03-08T00:23:25;30.10;;;16.08;;
50495;SDS011;38806;51.554;5.704;2023-03-08T00:25:25;25.75;;;17.73;;
50495;SDS011;38806;51.554;5.704;2023-03-08T00:27:26;25.20;;;16.13;;
50495;SDS011;38806;51.554;5.704;2023-03-08T00:29:27;30.92;;;18.88;;
50495;SDS011;38806;51.554;5.704;2023-03-08T00:31:27;31.13;;;17.77;;
50495;SDS011;38806;51.554;5.704;2023-03-08T00:33:28;33.58;;;22.08;;
50495;SDS011;38806;51.554;5.704;2023-03-08T00:35:28;31.40;;;19.38;;
50495;SDS011;38806;51.554;5.704;2023-03-08T00:37:28;34.00;;;20.55;;
50495;SDS011;38806;51.554;5.704;2023-03-08T00:39:28;30.40;;;18.65;;
50495;SDS011;38806;51.554;5.704;2023-03-08T00:41:28;34.65;;;18.77;;
50495;SDS011;38806;51.554;5.704;2023-03-08T00:43:29;31.65;;;19.77;;
50495;SDS011;38806;51.554;5.704;2023-03-08T00:45:29;35.38;;;21.20;;
50495;SDS011;38806;51.554;5.704;2023-03-08T00:47:29;37.25;;;20.17;;
50495;SDS011;38806;51.554;5.704;2023-03-08T00:49:30;40.78;;;22.35;;
50495;SDS011;38806;51.554;5.704;2023-03-08T00:51:30;34.45;;;20.52;;
50495;SDS011;38806;51.554;5.704;2023-03-08T00:53:30;39.20;;;21.05;;
50495;SDS011;38806;51.554;5.704;2023-03-08T00:55:30;39.42;;;23.52;;
50495;SDS011;38806;51.554;5.704;2023-03-08T00:57:31;42.28;;;22.83;;
50495;SDS011;38806;51.554;5.704;2023-03-08T00:59:32;30.55;;;18.98;;
50495;SDS011;38806;51.554;5.704;2023-03-08T01:01:32;38.17;;;22.95;;
50495;SDS011;38806;51.554;5.704;2023-03-08T01:03:32;34.25;;;20.88;;
50495;SDS011;38806;51.554;5.704;2023-03-08T01:05:33;40.28;;;23.13;;
50495;SDS011;38806;51.554;5.704;2023-03-08T01:07:33;34.22;;;24.33;;
50495;SDS011;38806;51.554;5.704;2023-03-08T01:09:33;37.78;;;23.92;;
50495;SDS011;38806;51.554;5.704;2023-03-08T01:11:33;44.10;;;23.25;;
50495;SDS011;38806;51.554;5.704;2023-03-08T01:13:35;32.55;;;22.67;;
50495;SDS011;38806;51.554;5.704;2023-03-08T01:15:36;41.97;;;24.00;;
50495;SDS011;38806;51.554;5.704;2023-03-08T01:17:36;42.90;;;25.27;;
50495;SDS011;38806;51.554;5.704;2023-03-08T01:19:37;47.00;;;25.33;;
50495;SDS011;38806;51.554;5.704;2023-03-08T01:21:37;50.10;;;28.23;;
50495;SDS011;38806;51.554;5.704;2023-03-08T01:23:37;41.60;;;26.33;;
50495;SDS011;38806;51.554;5.704;2023-03-08T01:25:37;53.72;;;27.83;;
50495;SDS011;38806;51.554;5.704;2023-03-08T01:27:37;50.45;;;28.00;;
50495;SDS011;38806;51.554;5.704;2023-03-08T01:29:38;44.85;;;27.35;;
50495;SDS011;38806;51.554;5.704;2023-03-08T01:31:38;42.80;;;26.33;;
50495;SDS011;38806;51.554;5.704;2023-03-08T01:33:38;44.25;;;27.50;;
50495;SDS011;38806;51.554;5.704;2023-03-08T01:35:39;42.85;;;27.77;;
50495;SDS011;38806;51.554;5.704;2023-03-08T01:37:39;45.50;;;28.38;;
50495;SDS011;38806;51.554;5.704;2023-03-08T01:39:39;46.13;;;26.40;;
50495;SDS011;38806;51.554;5.704;2023-03-08T01:41:39;39.63;;;26.55;;
50495;SDS011;38806;51.554;5.704;2023-03-08T01:43:39;38.63;;;25.60;;
50495;SDS011;38806;51.554;5.704;2023-03-08T01:48:15;46.17;;;25.88;;
50495;SDS011;38806;51.554;5.704;2023-03-08T01:50:16;44.95;;;27.00;;
50495;SDS011;38806;51.554;5.704;2023-03-08T01:52:17;49.50;;;27.02;;
50495;SDS011;38806;51.554;5.704;2023-03-08T01:54:42;46.63;;;26.35;;
50495;SDS011;38806;51.554;5.704;2023-03-08T01:56:40;47.70;;;27.33;;
50495;SDS011;38806;51.554;5.704;2023-03-08T01:58:42;41.03;;;25.17;;
50495;SDS011;38806;51.554;5.704;2023-03-08T02:00:43;41.22;;;24.58;;
50495;SDS011;38806;51.554;5.704;2023-03-08T02:02:47;44.50;;;28.15;;
50495;SDS011;38806;51.554;5.704;2023-03-08T02:04:48;47.25;;;24.95;;
50495;SDS011;38806;51.554;5.704;2023-03-08T02:06:48;41.03;;;26.98;;
50495;SDS011;38806;51.554;5.704;2023-03-08T02:08:49;44.67;;;27.23;;
50495;SDS011;38806;51.554;5.704;2023-03-08T02:10:49;54.83;;;28.20;;
50495;SDS011;38806;51.554;5.704;2023-03-08T02:12:49;54.70;;;27.52;;
50495;SDS011;38806;51.554;5.704;2023-03-08T02:14:50;44.30;;;26.50;;
50495;SDS011;38806;51.554;5.704;2023-03-08T02:16:50;46.15;;;27.75;;
50495;SDS011;38806;51.554;5.704;2023-03-08T02:18:51;45.20;;;26.23;;
50495;SDS011;38806;51.554;5.704;2023-03-08T02:20:52;48.03;;;28.25;;
50495;SDS011;38806;51.554;5.704;2023-03-08T02:22:52;58.83;;;28.52;;
50495;SDS011;38806;51.554;5.704;2023-03-08T02:24:52;45.90;;;26.67;;
50495;SDS011;38806;51.554;5.704;2023-03-08T02:26:55;51.45;;;30.10;;
50495;SDS011;38806;51.554;5.704;2023-03-08T02:28:57;53.33;;;29.42;;
50495;SDS011;38806;51.554;5.704;2023-03-08T02:30:57;50.60;;;27.45;;
50495;SDS011;38806;51.554;5.704;2023-03-08T02:32:58;52.42;;;27.73;;
50495;SDS011;38806;51.554;5.704;2023-03-08T02:34:58;55.13;;;28.83;;
50495;SDS011;38806;51.554;5.704;2023-03-08T02:36:58;54.47;;;30.55;;
50495;SDS011;38806;51.554;5.704;2023-03-08T02:38:58;49.55;;;27.77;;
50495;SDS011;38806;51.554;5.704;2023-03-08T02:40:59;53.05;;;29.02;;
50495;SDS011;38806;51.554;5.704;2023-03-08T02:42:59;50.00;;;27.30;;
50495;SDS011;38806;51.554;5.704;2023-03-08T02:44:59;48.83;;;28.17;;
50495;SDS011;38806;51.554;5.704;2023-03-08T02:46:59;58.75;;;29.13;;
50495;SDS011;38806;51.554;5.704;2023-03-08T02:48:59;45.78;;;26.00;;
50495;SDS011;38806;51.554;5.704;2023-03-08T02:51:00;49.88;;;28.55;;
50495;SDS011;38806;51.554;5.704;2023-03-08T02:53:00;45.63;;;26.77;;
50495;SDS011;38806;51.554;5.704;2023-03-08T02:55:00;48.33;;;28.55;;
50495;SDS011;38806;51.554;5.704;2023-03-08T02:57:00;55.13;;;29.95;;
50495;SDS011;38806;51.554;5.704;2023-03-08T02:59:00;53.40;;;28.45;;
50495;SDS011;38806;51.554;5.704;2023-03-08T03:01:01;55.88;;;30.15;;
50495;SDS011;38806;51.554;5.704;2023-03-08T03:03:01;54.65;;;30.52;;
50495;SDS011;38806;51.554;5.704;2023-03-08T03:05:02;58.95;;;32.28;;
50495;SDS011;38806;51.554;5.704;2023-03-08T03:07:03;56.17;;;29.42;;
50495;SDS011;38806;51.554;5.704;2023-03-08T03:09:07;48.53;;;28.98;;
50495;SDS011;38806;51.554;5.704;2023-03-08T03:11:11;57.53;;;30.60;;
50495;SDS011;38806;51.554;5.704;2023-03-08T03:13:11;52.47;;;30.48;;
50495;SDS011;38806;51.554;5.704;2023-03-08T03:15:11;57.92;;;29.85;;
50495;SDS011;38806;51.554;5.704;2023-03-08T03:17:12;55.33;;;31.17;;
50495;SDS011;38806;51.554;5.704;2023-03-08T03:19:12;60.45;;;31.60;;
50495;SDS011;38806;51.554;5.704;2023-03-08T03:21:12;54.05;;;33.20;;
50495;SDS011;38806;51.554;5.704;2023-03-08T03:23:13;56.95;;;32.78;;
50495;SDS011;38806;51.554;5.704;2023-03-08T03:25:13;59.20;;;32.13;;
50495;SDS011;38806;51.554;5.704;2023-03-08T03:27:13;59.42;;;32.80;;
50495;SDS011;38806;51.554;5.704;2023-03-08T03:29:13;55.30;;;32.38;;
50495;SDS011;38806;51.554;5.704;2023-03-08T03:31:15;56.75;;;29.58;;
50495;SDS011;38806;51.554;5.704;2023-03-08T03:33:15;54.95;;;32.55;;
50495;SDS011;38806;51.554;5.704;2023-03-08T03:35:15;60.13;;;31.95;;
50495;SDS011;38806;51.554;5.704;2023-03-08T03:37:16;59.28;;;32.35;;
50495;SDS011;38806;51.554;5.704;2023-03-08T03:39:16;61.90;;;32.63;;
50495;SDS011;38806;51.554;5.704;2023-03-08T03:41:17;52.92;;;28.92;;
50495;SDS011;38806;51.554;5.704;2023-03-08T03:43:18;52.92;;;27.73;;
50495;SDS011;38806;51.554;5.704;2023-03-08T03:45:18;43.92;;;26.17;;
50495;SDS011;38806;51.554;5.704;2023-03-08T03:47:18;50.40;;;28.67;;
50495;SDS011;38806;51.554;5.704;2023-03-08T03:49:18;53.40;;;29.88;;
50495;SDS011;38806;51.554;5.704;2023-03-08T03:51:19;48.97;;;26.33;;
50495;SDS011;38806;51.554;5.704;2023-03-08T03:53:20;44.90;;;27.00;;
50495;SDS011;38806;51.554;5.704;2023-03-08T03:55:20;44.13;;;27.27;;
50495;SDS011;38806;51.554;5.704;2023-03-08T03:57:20;53.00;;;28.30;;
50495;SDS011;38806;51.554;5.704;2023-03-08T03:59:20;43.38;;;28.08;;
50495;SDS011;38806;51.554;5.704;2023-03-08T04:01:25;45.90;;;27.98;;
50495;SDS011;38806;51.554;5.704;2023-03-08T04:03:26;52.45;;;28.17;;
50495;SDS011;38806;51.554;5.704;2023-03-08T04:05:26;44.83;;;26.27;;
50495;SDS011;38806;51.554;5.704;2023-03-08T04:07:26;49.15;;;28.70;;
50495;SDS011;38806;51.554;5.704;2023-03-08T04:09:26;45.20;;;24.20;;
50495;SDS011;38806;51.554;5.704;2023-03-08T04:11:28;50.38;;;27.58;;
50495;SDS011;38806;51.554;5.704;2023-03-08T04:13:28;48.88;;;27.20;;
50495;SDS011;38806;51.554;5.704;2023-03-08T04:15:28;46.00;;;26.90;;
50495;SDS011;38806;51.554;5.704;2023-03-08T04:17:28;45.25;;;26.02;;
50495;SDS011;38806;51.554;5.704;2023-03-08T04:19:29;47.53;;;27.77;;
50495;SDS011;38806;51.554;5.704;2023-03-08T04:21:29;52.30;;;26.75;;
50495;SDS011;38806;51.554;5.704;2023-03-08T04:23:29;56.67;;;29.73;;
50495;SDS011;38806;51.554;5.704;2023-03-08T04:25:29;52.22;;;28.15;;
50495;SDS011;38806;51.554;5.704;2023-03-08T04:27:29;51.55;;;26.35;;
50495;SDS011;38806;51.554;5.704;2023-03-08T04:29:30;48.30;;;26.95;;
50495;SDS011;38806;51.554;5.704;2023-03-08T04:31:31;55.88;;;24.83;;
50495;SDS011;38806;51.554;5.704;2023-03-08T04:33:31;52.47;;;27.80;;
50495;SDS011;38806;51.554;5.704;2023-03-08T04:35:32;56.85;;;28.02;;
50495;SDS011;38806;51.554;5.704;2023-03-08T04:37:32;46.88;;;27.60;;
50495;SDS011;38806;51.554;5.704;2023-03-08T04:39:32;50.80;;;25.98;;
50495;SDS011;38806;51.554;5.704;2023-03-08T04:41:32;54.78;;;28.88;;
50495;SDS011;38806;51.554;5.704;2023-03-08T04:43:33;47.95;;;27.05;;
50495;SDS011;38806;51.554;5.704;2023-03-08T04:45:33;56.60;;;28.75;;
50495;SDS011;38806;51.554;5.704;2023-03-08T04:47:33;49.63;;;25.92;;
50495;SDS011;38806;51.554;5.704;2023-03-08T04:49:33;51.88;;;26.38;;
50495;SDS011;38806;51.554;5.704;2023-03-08T04:51:34;53.00;;;27.38;;
50495;SDS011;38806;51.554;5.704;2023-03-08T04:53:34;57.72;;;28.85;;
50495;SDS011;38806;51.554;5.704;2023-03-08T04:55:35;46.45;;;27.05;;
50495;SDS011;38806;51.554;5.704;2023-03-08T04:57:35;54.47;;;27.05;;
50495;SDS011;38806;51.554;5.704;2023-03-08T04:59:35;54.88;;;27.00;;
50495;SDS011;38806;51.554;5.704;2023-03-08T05:01:36;46.28;;;25.08;;
50495;SDS011;38806;51.554;5.704;2023-03-08T05:03:36;49.58;;;26.88;;
50495;SDS011;38806;51.554;5.704;2023-03-08T05:05:36;52.22;;;25.67;;
50495;SDS011;38806;51.554;5.704;2023-03-08T05:07:36;50.25;;;26.52;;
50495;SDS011;38806;51.554;5.704;2023-03-08T05:09:37;45.95;;;23.73;;
50495;SDS011;38806;51.554;5.704;2023-03-08T05:11:37;53.60;;;24.35;;
50495;SDS011;38806;51.554;5.704;2023-03-08T05:13:37;48.85;;;23.92;;
50495;SDS011;38806;51.554;5.704;2023-03-08T05:15:37;45.58;;;22.80;;
50495;SDS011;38806;51.554;5.704;2023-03-08T05:17:38;42.90;;;23.50;;
50495;SDS011;38806;51.554;5.704;2023-03-08T05:19:38;37.88;;;21.65;;
50495;SDS011;38806;51.554;5.704;2023-03-08T05:21:38;40.65;;;22.90;;
50495;SDS011;38806;51.554;5.704;2023-03-08T05:23:38;48.08;;;25.25;;
50495;SDS011;38806;51.554;5.704;2023-03-08T05:25:41;43.53;;;23.85;;
50495;SDS011;38806;51.554;5.704;2023-03-08T05:27:44;43.08;;;23.55;;
50495;SDS011;38806;51.554;5.704;2023-03-08T05:29:45;48.08;;;24.67;;
50495;SDS011;38806;51.554;5.704;2023-03-08T05:31:45;48.42;;;26.00;;
50495;SDS011;38806;51.554;5.704;2023-03-08T05:33:46;40.28;;;23.98;;
50495;SDS011;38806;51.554;5.704;2023-03-08T05:35:51;51.28;;;27.08;;
50495;SDS011;38806;51.554;5.704;2023-03-08T05:37:52;48.83;;;23.52;;
50495;SDS011;38806;51.554;5.704;2023-03-08T05:39:52;50.20;;;27.45;;
50495;SDS011;38806;51.554;5.704;2023-03-08T05:41:52;51.20;;;26.33;;
50495;SDS011;38806;51.554;5.704;2023-03-08T05:43:52;53.88;;;27.35;;
50495;SDS011;38806;51.554;5.704;2023-03-08T05:46:03;52.42;;;27.00;;
50495;SDS011;38806;51.554;5.704;2023-03-08T05:48:03;54.10;;;26.58;;
50495;SDS011;38806;51.554;5.704;2023-03-08T05:50:04;46.05;;;25.70;;
50495;SDS011;38806;51.554;5.704;2023-03-08T05:52:04;51.38;;;22.88;;
50495;SDS011;38806;51.554;5.704;2023-03-08T05:54:04;44.45;;;24.63;;
50495;SDS011;38806;51.554;5.704;2023-03-08T05:58:08;45.45;;;24.55;;
50495;SDS011;38806;51.554;5.704;2023-03-08T06:00:09;45.70;;;27.58;;
50495;SDS011;38806;51.554;5.704;2023-03-08T06:02:09;47.42;;;24.00;;
50495;SDS011;38806;51.554;5.704;2023-03-08T06:04:09;51.80;;;27.65;;
50495;SDS011;38806;51.554;5.704;2023-03-08T06:06:09;37.63;;;22.23;;
50495;SDS011;38806;51.554;5.704;2023-03-08T06:08:10;44.97;;;20.83;;
50495;SDS011;38806;51.554;5.704;2023-03-08T06:10:10;37.47;;;22.13;;
50495;SDS011;38806;51.554;5.704;2023-03-08T06:12:10;37.25;;;21.67;;
50495;SDS011;38806;51.554;5.704;2023-03-08T06:14:10;37.75;;;18.77;;
50495;SDS011;38806;51.554;5.704;2023-03-08T06:16:10;30.85;;;17.02;;
50495;SDS011;38806;51.554;5.704;2023-03-08T06:18:11;30.08;;;14.85;;
50495;SDS011;38806;51.554;5.704;2023-03-08T06:20:11;26.67;;;15.43;;
50495;SDS011;38806;51.554;5.704;2023-03-08T06:22:11;22.85;;;11.68;;
50495;SDS011;38806;51.554;5.704;2023-03-08T06:24:14;26.85;;;13.05;;
50495;SDS011;38806;51.554;5.704;2023-03-08T06:26:14;23.65;;;12.98;;
50495;SDS011;38806;51.554;5.704;2023-03-08T06:28:14;26.00;;;12.98;;
50495;SDS011;38806;51.554;5.704;2023-03-08T06:30:15;26.50;;;13.80;;
50495;SDS011;38806;51.554;5.704;2023-03-08T06:32:15;33.90;;;15.63;;
50495;SDS011;38806;51.554;5.704;2023-03-08T06:34:16;26.05;;;13.35;;
50495;SDS011;38806;51.554;5.704;2023-03-08T06:36:17;24.77;;;14.68;;
50495;SDS011;38806;51.554;5.704;2023-03-08T06:38:17;25.27;;;12.52;;
50495;SDS011;38806;51.554;5.704;2023-03-08T06:40:17;24.73;;;13.75;;
50495;SDS011;38806;51.554;5.704;2023-03-08T06:42:18;26.08;;;13.27;;
50495;SDS011;38806;51.554;5.704;2023-03-08T06:44:19;23.88;;;11.95;;
50495;SDS011;38806;51.554;5.704;2023-03-08T06:46:19;26.20;;;13.30;;
50495;SDS011;38806;51.554;5.704;2023-03-08T06:48:19;22.77;;;12.07;;
50495;SDS011;38806;51.554;5.704;2023-03-08T06:50:19;22.95;;;11.38;;
50495;SDS011;38806;51.554;5.704;2023-03-08T06:52:20;23.92;;;10.40;;
50495;SDS011;38806;51.554;5.704;2023-03-08T06:54:20;19.23;;;10.75;;
50495;SDS011;38806;51.554;5.704;2023-03-08T06:56:20;20.85;;;10.88;;
50495;SDS011;38806;51.554;5.704;2023-03-08T06:58:21;18.27;;;8.30;;
50495;SDS011;38806;51.554;5.704;2023-03-08T07:00:21;20.45;;;9.68;;
50495;SDS011;38806;51.554;5.704;2023-03-08T07:02:21;22.73;;;11.77;;
50495;SDS011;38806;51.554;5.704;2023-03-08T07:04:22;22.13;;;11.52;;
50495;SDS011;38806;51.554;5.704;2023-03-08T07:06:22;19.58;;;8.77;;
50495;SDS011;38806;51.554;5.704;2023-03-08T07:08:22;16.90;;;11.20;;
50495;SDS011;38806;51.554;5.704;2023-03-08T07:10:23;20.77;;;10.38;;
50495;SDS011;38806;51.554;5.704;2023-03-08T07:12:23;24.70;;;10.38;;
50495;SDS011;38806;51.554;5.704;2023-03-08T07:14:23;18.23;;;10.98;;
50495;SDS011;38806;51.554;5.704;2023-03-08T07:16:23;20.50;;;9.90;;
50495;SDS011;38806;51.554;5.704;2023-03-08T07:18:23;24.83;;;10.50;;
50495;SDS011;38806;51.554;5.704;2023-03-08T07:20:24;20.05;;;11.23;;
50495;SDS011;38806;51.554;5.704;2023-03-08T07:22:25;21.73;;;11.88;;
50495;SDS011;38806;51.554;5.704;2023-03-08T07:24:25;19.83;;;10.60;;
50495;SDS011;38806;51.554;5.704;2023-03-08T07:26:25;18.60;;;9.38;;
50495;SDS011;38806;51.554;5.704;2023-03-08T07:28:25;21.42;;;10.68;;
50495;SDS011;38806;51.554;5.704;2023-03-08T07:30:26;19.60;;;10.40;;
50495;SDS011;38806;51.554;5.704;2023-03-08T07:32:26;18.38;;;9.73;;
50495;SDS011;38806;51.554;5.704;2023-03-08T07:34:27;17.13;;;9.68;;
50495;SDS011;38806;51.554;5.704;2023-03-08T07:36:27;19.65;;;10.25;;
50495;SDS011;38806;51.554;5.704;2023-03-08T07:38:28;22.40;;;10.30;;
50495;SDS011;38806;51.554;5.704;2023-03-08T07:40:28;21.70;;;10.70;;
50495;SDS011;38806;51.554;5.704;2023-03-08T07:42:28;22.08;;;10.52;;
50495;SDS011;38806;51.554;5.704;2023-03-08T07:44:29;22.00;;;11.65;;
50495;SDS011;38806;51.554;5.704;2023-03-08T07:46:29;22.77;;;11.30;;
50495;SDS011;38806;51.554;5.704;2023-03-08T07:48:29;22.42;;;12.02;;
50495;SDS011;38806;51.554;5.704;2023-03-08T07:50:30;24.75;;;12.52;;
50495;SDS011;38806;51.554;5.704;2023-03-08T07:52:30;26.00;;;13.73;;
50495;SDS011;38806;51.554;5.704;2023-03-08T07:54:30;24.73;;;13.05;;
50495;SDS011;38806;51.554;5.704;2023-03-08T07:56:31;26.42;;;13.07;;
50495;SDS011;38806;51.554;5.704;2023-03-08T07:58:31;21.73;;;11.85;;
50495;SDS011;38806;51.554;5.704;2023-03-08T08:00:31;22.63;;;12.25;;
50495;SDS011;38806;51.554;5.704;2023-03-08T08:02:32;20.70;;;10.85;;
50495;SDS011;38806;51.554;5.704;2023-03-08T08:04:33;20.85;;;11.25;;
50495;SDS011;38806;51.554;5.704;2023-03-08T08:06:34;24.13;;;11.70;;
50495;SDS011;38806;51.554;5.704;2023-03-08T08:08:34;20.33;;;10.30;;
50495;SDS011;38806;51.554;5.704;2023-03-08T08:10:35;14.30;;;7.78;;
50495;SDS011;38806;51.554;5.704;2023-03-08T08:12:35;16.13;;;8.18;;
50495;SDS011;38806;51.554;5.704;2023-03-08T08:14:35;14.80;;;7.93;;
50495;SDS011;38806;51.554;5.704;2023-03-08T08:16:36;18.15;;;8.88;;
50495;SDS011;38806;51.554;5.704;2023-03-08T08:18:36;18.52;;;8.75;;
50495;SDS011;38806;51.554;5.704;2023-03-08T08:20:36;20.17;;;8.80;;
50495;SDS011;38806;51.554;5.704;2023-03-08T08:22:36;14.75;;;7.93;;
50495;SDS011;38806;51.554;5.704;2023-03-08T08:24:37;17.40;;;8.35;;
50495;SDS011;38806;51.554;5.704;2023-03-08T08:26:37;15.02;;;8.27;;
50495;SDS011;38806;51.554;5.704;2023-03-08T08:28:38;15.40;;;7.68;;
50495;SDS011;38806;51.554;5.704;2023-03-08T08:30:38;14.13;;;8.15;;
50495;SDS011;38806;51.554;5.704;2023-03-08T08:32:39;18.52;;;9.05;;
50495;SDS011;38806;51.554;5.704;2023-03-08T08:34:39;17.67;;;8.32;;
50495;SDS011;38806;51.554;5.704;2023-03-08T08:36:39;16.30;;;7.25;;
50495;SDS011;38806;51.554;5.704;2023-03-08T08:38:39;16.42;;;8.95;;
50495;SDS011;38806;51.554;5.704;2023-03-08T08:40:39;13.80;;;7.68;;
50495;SDS011;38806;51.554;5.704;2023-03-08T08:42:40;14.73;;;7.53;;
50495;SDS011;38806;51.554;5.704;2023-03-08T08:44:40;11.13;;;6.70;;
50495;SDS011;38806;51.554;5.704;2023-03-08T08:46:40;12.65;;;5.25;;
50495;SDS011;38806;51.554;5.704;2023-03-08T08:48:41;11.38;;;5.78;;
50495;SDS011;38806;51.554;5.704;2023-03-08T08:50:41;8.95;;;4.55;;
50495;SDS011;38806;51.554;5.704;2023-03-08T08:52:41;10.35;;;4.45;;
50495;SDS011;38806;51.554;5.704;2023-03-08T08:54:41;8.43;;;5.15;;
50495;SDS011;38806;51.554;5.704;2023-03-08T08:56:42;11.90;;;6.60;;
50495;SDS011;38806;51.554;5.704;2023-03-08T08:58:42;12.70;;;5.93;;
50495;SDS011;38806;51.554;5.704;2023-03-08T09:00:43;12.40;;;6.35;;
50495;SDS011;38806;51.554;5.704;2023-03-08T09:02:43;12.75;;;5.38;;
50495;SDS011;38806;51.554;5.704;2023-03-08T09:04:43;13.07;;;5.97;;
50495;SDS011;38806;51.554;5.704;2023-03-08T09:06:43;10.10;;;4.15;;
50495;SDS011;38806;51.554;5.704;2023-03-08T09:08:44;9.13;;;4.20;;
50495;SDS011;38806;51.554;5.704;2023-03-08T09:10:45;10.90;;;5.65;;
50495;SDS011;38806;51.554;5.704;2023-03-08T09:12:45;9.20;;;4.97;;
50495;SDS011;38806;51.554;5.704;2023-03-08T09:14:45;12.13;;;5.78;;
50495;SDS011;38806;51.554;5.704;2023-03-08T09:16:45;8.35;;;5.03;;
50495;SDS011;38806;51.554;5.704;2023-03-08T09:18:46;10.50;;;6.07;;
50495;SDS011;38806;51.554;5.704;2023-03-08T09:20:46;9.27;;;5.03;;
50495;SDS011;38806;51.554;5.704;2023-03-08T09:22:46;11.38;;;5.57;;
50495;SDS011;38806;51.554;5.704;2023-03-08T09:24:47;13.98;;;6.63;;
50495;SDS011;38806;51.554;5.704;2023-03-08T09:26:48;12.77;;;8.15;;
50495;SDS011;38806;51.554;5.704;2023-03-08T09:28:48;12.73;;;7.57;;
50495;SDS011;38806;51.554;5.704;2023-03-08T09:30:48;12.70;;;7.75;;
50495;SDS011;38806;51.554;5.704;2023-03-08T09:32:48;16.42;;;9.77;;
50495;SDS011;38806;51.554;5.704;2023-03-08T09:34:49;13.43;;;8.02;;
50495;SDS011;38806;51.554;5.704;2023-03-08T09:36:50;16.23;;;10.30;;
50495;SDS011;38806;51.554;5.704;2023-03-08T09:38:50;18.67;;;9.63;;
50495;SDS011;38806;51.554;5.704;2023-03-08T09:41:18;16.83;;;9.75;;
50495;SDS011;38806;51.554;5.704;2023-03-08T09:43:17;18.80;;;9.32;;
50495;SDS011;38806;51.554;5.704;2023-03-08T09:47:28;15.88;;;8.60;;
50495;SDS011;38806;51.554;5.704;2023-03-08T09:49:30;19.85;;;9.38;;
50495;SDS011;38806;51.554;5.704;2023-03-08T09:51:34;16.92;;;9.93;;
50495;SDS011;38806;51.554;5.704;2023-03-08T09:53:38;20.58;;;11.27;;
50495;SDS011;38806;51.554;5.704;2023-03-08T09:55:44;16.95;;;10.23;;
50495;SDS011;38806;51.554;5.704;2023-03-08T09:57:49;20.17;;;11.45;;
50495;SDS011;38806;51.554;5.704;2023-03-08T10:10:47;18.48;;;12.00;;
50495;SDS011;38806;51.554;5.704;2023-03-08T10:12:55;20.02;;;12.30;;
50495;SDS011;38806;51.554;5.704;2023-03-08T10:14:59;22.67;;;12.25;;
50495;SDS011;38806;51.554;5.704;2023-03-08T10:17:08;17.13;;;10.93;;
50495;SDS011;38806;51.554;5.704;2023-03-08T10:21:20;18.85;;;10.20;;
50495;SDS011;38806;51.554;5.704;2023-03-08T10:23:21;22.70;;;12.20;;
50495;SDS011;38806;51.554;5.704;2023-03-08T10:25:25;19.13;;;11.77;;
50495;SDS011;38806;51.554;5.704;2023-03-08T10:27:31;18.42;;;12.35;;
50495;SDS011;38806;51.554;5.704;2023-03-08T10:29:32;21.92;;;11.13;;
50495;SDS011;38806;51.554;5.704;2023-03-08T10:31:32;17.40;;;10.63;;
50495;SDS011;38806;51.554;5.704;2023-03-08T10:33:33;19.33;;;12.63;;
50495;SDS011;38806;51.554;5.704;2023-03-08T10:35:35;16.90;;;11.13;;
50495;SDS011;38806;51.554;5.704;2023-03-08T10:37:36;16.80;;;11.45;;
50495;SDS011;38806;51.554;5.704;2023-03-08T10:39:37;19.48;;;11.43;;
50495;SDS011;38806;51.554;5.704;2023-03-08T10:41:52;18.98;;;11.75;;
50495;SDS011;38806;51.554;5.704;2023-03-08T10:43:54;20.90;;;13.37;;
50495;SDS011;38806;51.554;5.704;2023-03-08T10:45:58;17.52;;;10.80;;
50495;SDS011;38806;51.554;5.704;2023-03-08T10:48:02;17.55;;;10.27;;
50495;SDS011;38806;51.554;5.704;2023-03-08T10:50:17;21.10;;;11.95;;
50495;SDS011;38806;51.554;5.704;2023-03-08T10:52:22;18.02;;;10.55;;
50495;SDS011;38806;51.554;5.704;2023-03-08T10:54:24;17.08;;;10.05;;
50495;SDS011;38806;51.554;5.704;2023-03-08T10:56:26;14.35;;;9.05;;
50495;SDS011;38806;51.554;5.704;2023-03-08T11:00:34;17.73;;;9.32;;
50495;SDS011;38806;51.554;5.704;2023-03-08T11:02:34;18.15;;;9.13;;
50495;SDS011;38806;51.554;5.704;2023-03-08T11:04:34;13.95;;;9.20;;
50495;SDS011;38806;51.554;5.704;2023-03-08T11:06:35;14.60;;;8.52;;
50495;SDS011;38806;51.554;5.704;2023-03-08T11:08:36;14.48;;;7.90;;
50495;SDS011;38806;51.554;5.704;2023-03-08T11:10:36;12.82;;;7.70;;
50495;SDS011;38806;51.554;5.704;2023-03-08T11:12:37;12.23;;;6.95;;
50495;SDS011;38806;51.554;5.704;2023-03-08T11:14:37;12.55;;;7.57;;
50495;SDS011;38806;51.554;5.704;2023-03-08T11:20:54;11.02;;;7.53;;
50495;SDS011;38806;51.554;5.704;2023-03-08T11:25:16;9.10;;;6.22;;
50495;SDS011;38806;51.554;5.704;2023-03-08T11:31:42;7.40;;;5.18;;
50495;SDS011;38806;51.554;5.704;2023-03-08T11:34:04;11.75;;;6.38;;
50495;SDS011;38806;51.554;5.704;2023-03-08T11:38:26;12.40;;;6.65;;
50495;SDS011;38806;51.554;5.704;2023-03-08T11:42:34;11.52;;;7.35;;
50495;SDS011;38806;51.554;5.704;2023-03-08T11:44:44;12.95;;;6.95;;
50495;SDS011;38806;51.554;5.704;2023-03-08T11:51:09;14.20;;;7.18;;
50495;SDS011;38806;51.554;5.704;2023-03-08T11:53:25;11.18;;;7.82;;
50495;SDS011;38806;51.554;5.704;2023-03-08T11:55:32;10.48;;;6.57;;
50495;SDS011;38806;51.554;5.704;2023-03-08T11:57:36;12.03;;;6.73;;
50495;SDS011;38806;51.554;5.704;2023-03-08T12:01:40;10.18;;;5.90;;
50495;SDS011;38806;51.554;5.704;2023-03-08T12:03:59;9.77;;;6.28;;
50495;SDS011;38806;51.554;5.704;2023-03-08T12:06:09;9.43;;;6.25;;
50495;SDS011;38806;51.554;5.704;2023-03-08T12:08:13;7.85;;;4.70;;
50495;SDS011;38806;51.554;5.704;2023-03-08T12:12:32;10.10;;;5.15;;
50495;SDS011;38806;51.554;5.704;2023-03-08T12:14:37;12.70;;;6.50;;
50495;SDS011;38806;51.554;5.704;2023-03-08T12:16:40;10.68;;;5.57;;
50495;SDS011;38806;51.554;5.704;2023-03-08T12:20:43;9.70;;;5.82;;
50495;SDS011;38806;51.554;5.704;2023-03-08T12:22:59;11.55;;;5.45;;
50495;SDS011;38806;51.554;5.704;2023-03-08T12:25:06;9.05;;;5.80;;
50495;SDS011;38806;51.554;5.704;2023-03-08T12:29:19;11.68;;;6.57;;
50495;SDS011;38806;51.554;5.704;2023-03-08T12:31:23;8.27;;;5.10;;
50495;SDS011;38806;51.554;5.704;2023-03-08T12:33:24;9.52;;;6.13;;
50495;SDS011;38806;51.554;5.704;2023-03-08T12:35:29;11.60;;;6.15;;
50495;SDS011;38806;51.554;5.704;2023-03-08T12:37:30;9.30;;;6.50;;
50495;SDS011;38806;51.554;5.704;2023-03-08T12:39:32;11.18;;;6.00;;
50495;SDS011;38806;51.554;5.704;2023-03-08T12:41:32;15.20;;;7.78;;
50495;SDS011;38806;51.554;5.704;2023-03-08T12:43:33;9.50;;;6.13;;